Time;durP1;ratioP1;P1;durP2;ratioP2;P2;SDS_P1;SDS_P2;PMS_P1;PMS_P2;Temp;Humidity;BMP_temperature;BMP_pressure;BME280_temperature;BME280_humidity;BME280_pressure;Samples;Min_cycle;Max_cycle;Signal;HPM_P1;HPM_P2
2021/10/30 00:00:51;;;;;;;37.90;27.90;;;;;;;;;;5051378;28;20442;-86
2021/10/30 00:03:18;;;;;;;33.27;24.30;;;;;;;;;;5051480;28;20436;-85
2021/10/30 00:05:46;;;;;;;31.10;26.17;;;;;;;;;;5046342;28;20456;-87
2021/10/30 00:08:14;;;;;;;34.67;24.93;;;;;;;;;;5045091;28;20409;-85
2021/10/30 00:10:41;;;;;;;34.63;26.57;;;;;;;;;;5042303;28;20574;-87
2021/10/30 00:13:08;;;;;;;34.77;27.50;;;;;;;;;;5050907;28;20435;-86
2021/10/30 00:15:36;;;;;;;42.13;28.23;;;;;;;;;;5056205;28;20454;-85
2021/10/30 00:18:03;;;;;;;35.17;27.77;;;;;;;;;;5054616;28;20437;-85
2021/10/30 00:20:30;;;;;;;37.53;28.93;;;;;;;;;;5056015;28;20896;-88
2021/10/30 00:22:57;;;;;;;44.73;27.77;;;;;;;;;;5056348;28;20421;-88
2021/10/30 00:25:25;;;;;;;41.10;30.13;;;;;;;;;;5048806;28;20440;-86
2021/10/30 00:27:52;;;;;;;43.00;30.00;;;;;;;;;;5044610;28;20503;-88
2021/10/30 00:30:19;;;;;;;36.87;27.30;;;;;;;;;;5045992;28;20470;-88
2021/10/30 00:32:47;;;;;;;36.60;27.87;;;;;;;;;;5047663;28;20424;-88
2021/10/30 00:35:14;;;;;;;42.77;29.57;;;;;;;;;;5051557;28;20465;-87
2021/10/30 00:37:41;;;;;;;43.30;29.93;;;;;;;;;;5056637;28;20409;-88
2021/10/30 00:40:11;;;;;;;34.77;25.80;;;;;;;;;;5056486;28;20438;-87
2021/10/30 00:42:38;;;;;;;43.90;28.17;;;;;;;;;;5056200;28;20437;-85
2021/10/30 00:45:06;;;;;;;44.03;27.80;;;;;;;;;;5054928;28;20437;-82
2021/10/30 00:47:33;;;;;;;40.28;30.70;;;;;;;;;;5058676;28;20435;-87
2021/10/30 00:50:02;;;;;;;37.23;28.33;;;;;;;;;;5056762;28;20211;-83
2021/10/30 00:52:30;;;;;;;41.58;27.60;;;7.90;99.90;;;;;;5057512;28;20421;-82
2021/10/30 00:54:59;;;;;;;48.33;30.60;;;7.90;99.90;;;;;;5058044;28;20204;-82
2021/10/30 00:57:27;;;;;;;39.83;29.63;;;7.90;99.90;;;;;;5058511;28;20207;-79
2021/10/30 00:59:54;;;;;;;41.50;29.83;;;;;;;;;;5055977;28;20214;-82
2021/10/30 01:02:21;;;;;;;45.47;30.53;;;;;;;;;;5051246;28;20200;-82
2021/10/30 01:04:48;;;;;;;39.97;29.10;;;;;;;;;;5054462;28;20445;-80
2021/10/30 01:07:17;;;;;;;44.47;30.70;;;;;;;;;;5051692;28;20421;-82
2021/10/30 01:09:44;;;;;;;42.40;29.20;;;;;;;;;;5051409;28;20808;-81
2021/10/30 01:12:11;;;;;;;43.95;30.63;;;;;;;;;;5055841;28;20227;-80
2021/10/30 01:14:39;;;;;;;42.23;29.47;;;7.80;99.90;;;;;;5058052;28;20242;-81
2021/10/30 01:17:07;;;;;;;50.53;30.93;;;7.60;99.90;;;;;;5058256;28;20428;-80
2021/10/30 01:19:34;;;;;;;47.70;33.13;;;7.60;99.90;;;;;;5058632;28;20433;-81
2021/10/30 01:22:04;;;;;;;42.93;30.63;;;7.90;99.90;;;;;;5058643;28;20187;-80
2021/10/30 01:24:31;;;;;;;41.72;31.30;;;;;;;;;;5058334;28;20440;-80
2021/10/30 01:26:58;;;;;;;40.75;28.58;;;;;;;;;;5053681;28;20203;-82
2021/10/30 01:29:25;;;;;;;39.85;29.35;;;;;;;;;;5050786;28;20188;-81
2021/10/30 01:31:55;;;;;;;41.83;29.35;;;;;;;;;;5056175;28;20285;-84
2021/10/30 01:34:27;;;;;;;41.88;30.25;;;7.70;99.90;;;;;;5055576;28;20224;-82
2021/10/30 01:36:54;;;;;;;46.35;31.00;;;;;;;;;;5057051;28;20234;-82
2021/10/30 01:39:24;;;;;;;38.63;28.52;;;7.80;99.90;;;;;;5056787;28;20203;-82
2021/10/30 01:41:51;;;;;;;42.27;30.77;;;;;;;;;;5057314;28;20187;-83
2021/10/30 01:44:17;;;;;;;45.93;28.73;;;;;;;;;;5056846;28;20538;-83
2021/10/30 01:46:45;;;;;;;46.30;32.42;;;;;;;;;;5056992;28;20431;-83
2021/10/30 01:49:12;;;;;;;50.95;33.10;;;;;;;;;;5055871;28;20196;-83
2021/10/30 01:51:39;;;;;;;36.65;30.48;;;;;;;;;;5056949;28;20211;-81
2021/10/30 01:54:06;;;;;;;41.45;30.58;;;;;;;;;;5057111;28;20223;-83
2021/10/30 01:56:34;;;;;;;48.22;33.58;;;7.50;99.90;;;;;;5056973;28;20199;-82
2021/10/30 01:59:03;;;;;;;49.80;31.37;;;6.80;99.90;;;;;;5056883;28;20212;-81
2021/10/30 02:01:30;;;;;;;44.63;31.92;;;;;;;;;;5056296;28;20439;-82
2021/10/30 02:03:59;;;;;;;43.67;31.25;;;;;;;;;;5055731;28;20188;-82
2021/10/30 02:06:26;;;;;;;47.22;31.48;;;;;;;;;;5056316;28;20188;-83
2021/10/30 02:08:53;;;;;;;47.55;32.28;;;;;;;;;;5056253;28;20204;-82
2021/10/30 02:11:21;;;;;;;42.85;30.63;;;;;;;;;;5056292;28;20242;-82
2021/10/30 02:13:48;;;;;;;45.72;30.60;;;7.50;99.90;;;;;;5054565;28;20234;-81
2021/10/30 02:16:16;;;;;;;43.35;32.33;;;;;;;;;;5056273;28;20204;-83
2021/10/30 02:18:43;;;;;;;40.90;30.60;;;;;;;;;;5055415;28;20204;-82
2021/10/30 02:21:10;;;;;;;48.80;32.80;;;;;;;;;;5055456;28;20230;-81
2021/10/30 02:23:37;;;;;;;44.40;32.45;;;;;;;;;;5055045;28;20255;-81
2021/10/30 02:26:04;;;;;;;42.83;30.70;;;;;;;;;;5055548;28;20247;-83
2021/10/30 02:28:31;;;;;;;53.50;34.33;;;;;;;;;;5054846;28;20203;-81
2021/10/30 02:30:59;;;;;;;52.60;36.70;;;7.30;99.90;;;;;;5057061;28;20266;-83
2021/10/30 02:33:26;;;;;;;51.53;34.78;;;;;;;;;;5056781;28;20191;-83
2021/10/30 02:35:53;;;;;;;48.33;34.90;;;;;;;;;;5055880;28;20208;-82
2021/10/30 02:38:20;;;;;;;49.28;32.40;;;;;;;;;;5057182;28;20198;-83
2021/10/30 02:40:47;;;;;;;51.58;34.15;;;;;;;;;;5051543;28;20204;-83
2021/10/30 02:43:16;;;;;;;51.63;34.38;;;7.30;99.90;;;;;;5052665;28;20207;-83
2021/10/30 02:45:43;;;;;;;45.92;33.47;;;;;;;;;;5053612;28;20212;-82
2021/10/30 02:48:14;;;;;;;49.92;33.15;;;7.20;99.90;;;;;;5054964;28;20257;-83
2021/10/30 02:50:41;;;;;;;43.67;33.42;;;;;;;;;;5050731;28;20187;-83
2021/10/30 02:53:08;;;;;;;50.30;33.25;;;;;;;;;;5051901;28;20231;-83
2021/10/30 02:55:35;;;;;;;54.10;36.15;;;;;;;;;;5051083;28;20441;-83
2021/10/30 02:58:04;;;;;;;42.92;33.08;;;;;;;;;;5046678;28;20211;-83
2021/10/30 03:00:34;;;;;;;45.50;33.65;;;;;;;;;;5045397;28;20279;-83
2021/10/30 03:03:02;;;;;;;46.22;32.20;;;;;;;;;;5044733;28;20214;-83
2021/10/30 03:12:24;;;;;;;40.55;30.83;;;;;;;;;;4911255;28;20774;-85
2021/10/30 03:14:51;;;;;;;44.88;29.98;;;;;;;;;;4982165;28;20233;-84
2021/10/30 03:26:09;;;;;;;38.67;28.48;;;;;;;;;;4921893;28;20579;-83
2021/10/30 03:28:47;;;;;;;39.40;28.73;;;;;;;;;;5041130;28;20349;-83
2021/10/30 03:31:22;;;;;;;37.60;27.08;;;;;;;;;;5040418;28;20674;-83
2021/10/30 03:33:49;;;;;;;43.75;29.17;;;;;;;;;;5039787;28;20255;-82
2021/10/30 03:39:19;;;;;;;39.35;29.42;;;;;;;;;;5036953;28;20211;-84
2021/10/30 03:41:49;;;;;;;50.03;27.88;;;;;;;;;;5038438;28;20199;-82
2021/10/30 03:44:43;;;;;;;36.28;27.60;;;;;;;;;;5038431;28;20553;-83
2021/10/30 03:47:39;;;;;;;37.10;26.92;;;;;;;;;;4979595;28;20264;-83
2021/10/30 03:50:12;;;;;;;40.92;29.25;;;;;;;;;;4980558;28;20231;-83
2021/10/30 03:55:55;;;;;;;42.00;28.75;;;;;;;;;;5042088;28;20215;-82
2021/10/30 04:07:36;;;;;;;;;;;;;;;;;;;;;
2021/10/30 04:13:51;;;;;;;;;;;;;;;;;;;;;
2021/10/30 04:16:56;;;;;;;41.85;28.33;;;;;;;;;;4888515;28;20232;-85
2021/10/30 04:25:52;;;;;;;35.90;26.85;;;;;;;;;;4958523;28;20292;-85
2021/10/30 04:31:49;;;;;;;43.40;27.90;;;;;;;;;;5043488;28;20263;-85
2021/10/30 04:34:20;;;;;;;40.28;29.80;;;;;;;;;;5044100;28;20231;-85
2021/10/30 04:37:15;;;;;;;42.70;28.50;;;;;;;;;;5043981;28;20196;-86
2021/10/30 04:42:34;;;;;;;44.92;31.35;;;;;;;;;;5049702;28;20176;-86
2021/10/30 04:45:03;;;;;;;43.92;29.85;;;;;;;;;;5059496;28;20234;-84
2021/10/30 04:47:33;;;;;;;41.95;31.17;;;;;;;;;;5059543;28;20200;-84
2021/10/30 04:50:01;;;;;;;49.08;30.45;;;;;;;;;;5059428;28;20206;-83
2021/10/30 04:52:37;;;;;;;42.83;29.92;;;;;;;;;;5059511;28;20285;-84
2021/10/30 04:55:23;;;;;;;46.15;31.33;;;;;;;;;;5058203;28;20227;-83
2021/10/30 04:57:53;;;;;;;40.67;27.50;;;;;;;;;;5057996;28;20203;-84
2021/10/30 05:00:29;;;;;;;41.35;29.95;;;;;;;;;;5055839;28;20470;-84
2021/10/30 05:02:56;;;;;;;41.77;33.60;;;;;;;;;;5052187;28;20463;-83
2021/10/30 05:05:23;;;;;;;37.08;29.08;;;;;;;;;;5051788;28;20462;-83
2021/10/30 05:07:51;;;;;;;40.63;29.15;;;;;;;;;;5050535;28;20203;-83
2021/10/30 05:10:19;;;;;;;39.40;29.23;;;;;;;;;;5049454;28;20200;-83
2021/10/30 05:12:47;;;;;;;42.92;29.73;;;;;;;;;;5050299;28;20449;-82
2021/10/30 05:15:15;;;;;;;39.05;27.70;;;6.40;99.90;;;;;;5048023;28;20594;-83
2021/10/30 05:17:42;;;;;;;44.58;28.75;;;;;;;;;;5049206;28;20200;-83
2021/10/30 05:20:13;;;;;;;42.83;28.13;;;8.60;99.90;;;;;;5047056;28;20254;-86
2021/10/30 05:22:40;;;;;;;33.42;27.85;;;;;;;;;;5047746;28;20188;-82
2021/10/30 05:25:07;;;;;;;38.20;27.70;;;6.50;99.90;;;;;;5053491;28;20235;-82
2021/10/30 05:27:34;;;;;;;41.20;27.95;;;;;;;;;;5055629;28;20195;-85
2021/10/30 05:30:01;;;;;;;41.92;28.17;;;;;;;;;;5052529;28;20585;-85
2021/10/30 05:32:33;;;;;;;39.60;28.17;;;6.70;99.90;;;;;;5051429;28;20224;-85
2021/10/30 05:35:00;;;;;;;46.83;25.60;;;;;;;;;;5049814;28;20287;-85
2021/10/30 05:37:27;;;;;;;48.42;34.13;;;;;;;;;;5051536;28;20698;-86
2021/10/30 05:39:54;;;;;;;38.35;30.00;;;;;;;;;;5056671;28;20192;-86
2021/10/30 05:42:21;;;;;;;51.95;30.73;;;;;;;;;;5054319;28;20204;-86
2021/10/30 05:44:48;;;;;;;41.25;27.38;;;;;;;;;;5055177;28;20223;-85
2021/10/30 05:47:15;;;;;;;40.78;27.35;;;;;;;;;;5047536;28;20223;-84
2021/10/30 05:49:44;;;;;;;40.72;27.42;;;6.60;99.90;;;;;;5043179;28;20218;-85
2021/10/30 05:52:12;;;;;;;43.28;29.33;;;;;;;;;;5044154;28;20636;-85
2021/10/30 05:54:39;;;;;;;35.88;25.83;;;;;;;;;;5040190;28;20255;-86
2021/10/30 05:57:06;;;;;;;36.33;27.52;;;;;;;;;;5040984;28;20623;-87
2021/10/30 05:59:33;;;;;;;51.88;33.08;;;;;;;;;;5040922;28;20204;-84
2021/10/30 06:02:00;;;;;;;46.42;31.70;;;;;;;;;;5042059;28;20227;-86
2021/10/30 06:04:29;;;;;;;44.80;32.22;;;6.80;99.90;;;;;;5042486;28;20274;-85
2021/10/30 06:06:57;;;;;;;49.38;31.65;;;6.80;99.90;;;;;;5042007;28;20219;-85
2021/10/30 06:09:24;;;;;;;48.08;30.23;;;;;;;;;;5042947;28;20208;-86
2021/10/30 06:11:51;;;;;;;37.38;26.80;;;;;;;;;;5041535;28;20226;-85
2021/10/30 06:14:18;;;;;;;34.65;25.15;;;;;;;;;;5043108;28;20270;-86
2021/10/30 06:16:45;;;;;;;31.27;24.13;;;;;;;;;;5042086;28;20254;-85
2021/10/30 06:19:12;;;;;;;31.90;24.10;;;;;;;;;;5042280;28;20232;-86
2021/10/30 06:21:38;;;;;;;41.45;25.45;;;;;;;;;;5039918;28;20230;-84
2021/10/30 06:24:09;;;;;;;34.15;25.25;;;6.70;99.90;;;;;;5041409;28;20244;-85
2021/10/30 06:26:37;;;;;;;33.08;24.00;;;;;;;;;;5040544;28;20206;-84
2021/10/30 06:29:09;;;;;;;35.42;26.95;;;6.60;99.90;;;;;;5042200;28;20207;-84
2021/10/30 06:31:38;;;;;;;38.47;27.40;;;6.50;99.90;;;;;;5050983;28;20183;-84
2021/10/30 06:34:05;;;;;;;36.85;25.25;;;;;;;;;;5040965;28;20273;-83
2021/10/30 06:36:35;;;;;;;35.55;25.20;;;6.40;99.90;;;;;;5043219;28;20203;-84
2021/10/30 06:39:02;;;;;;;33.00;26.08;;;;;;;;;;5038790;28;20253;-83
2021/10/30 06:41:32;;;;;;;32.58;24.50;;;6.40;99.90;;;;;;5039894;28;20230;-83
2021/10/30 06:43:59;;;;;;;37.38;26.23;;;;;;;;;;5037674;28;20587;-84
2021/10/30 06:46:26;;;;;;;33.35;23.33;;;;;;;;;;5038900;28;20230;-84
2021/10/30 06:48:55;;;;;;;41.03;26.90;;;;;;;;;;5049797;28;20215;-83
2021/10/30 06:51:23;;;;;;;30.02;24.92;;;;;;;;;;5055313;28;20207;-85
2021/10/30 06:53:52;;;;;;;34.70;24.52;;;;;;;;;;5056494;28;20231;-84
2021/10/30 06:56:19;;;;;;;34.25;24.50;;;;;;;;;;5057046;28;20214;-84
2021/10/30 06:58:48;;;;;;;43.95;25.88;;;;;;;;;;5049231;28;20204;-87
2021/10/30 07:01:17;;;;;;;35.45;24.58;;;6.90;99.90;;;;;;5042389;28;20214;-87
2021/10/30 07:03:44;;;;;;;29.35;23.70;;;;;;;;;;5044205;28;20199;-86
2021/10/30 07:06:11;;;;;;;35.67;24.35;;;;;;;;;;5044643;28;20682;-86
2021/10/30 07:08:39;;;;;;;33.15;24.98;;;;;;;;;;5049745;28;20277;-85
2021/10/30 07:11:06;;;;;;;31.38;24.27;;;;;;;;;;5045739;28;20211;-85
2021/10/30 07:13:33;;;;;;;32.10;23.67;;;;;;;;;;5040983;28;20227;-87
2021/10/30 07:16:02;;;;;;;34.25;24.10;;;;;;;;;;5039316;28;20223;-88
2021/10/30 07:18:28;;;;;;;30.58;22.90;;;;;;;;;;5040112;28;20204;-86
2021/10/30 07:20:56;;;;;;;33.67;23.52;;;;;;;;;;5042910;28;20204;-85
2021/10/30 07:23:25;;;;;;;31.00;22.83;;;;;;;;;;5051617;28;20208;-85
2021/10/30 07:25:52;;;;;;;31.52;24.05;;;;;;;;;;5053443;28;20297;-85
2021/10/30 07:28:19;;;;;;;34.85;25.42;;;;;;;;;;5053246;28;20242;-86
2021/10/30 07:30:46;;;;;;;32.75;24.42;;;;;;;;;;5053739;28;20269;-84
2021/10/30 07:33:15;;;;;;;31.70;23.83;;;;;;;;;;5048416;28;20211;-88
2021/10/30 07:35:43;;;;;;;36.70;24.85;;;;;;;;;;5042141;28;20231;-87
2021/10/30 07:41:05;;;;;;;31.80;23.40;;;;;;;;;;5026000;28;20661;-90
2021/10/30 07:43:33;;;;;;;33.97;21.88;;;;;;;;;;5038461;28;20249;-88
2021/10/30 07:46:00;;;;;;;28.05;23.02;;;;;;;;;;5037530;28;20286;-87
2021/10/30 07:48:28;;;;;;;31.35;23.08;;;;;;;;;;5038939;28;20222;-87
2021/10/30 07:50:58;;;;;;;38.30;25.33;;;;;;;;;;5039454;28;20245;-88
2021/10/30 07:53:48;;;;;;;35.03;25.10;;;;;;;;;;5038463;28;20245;-86
2021/10/30 07:59:02;;;;;;;30.17;23.33;;;;;;;;;;5053168;28;20203;-81
2021/10/30 08:01:29;;;;;;;34.60;25.40;;;;;;;;;;5049717;28;20438;-82
2021/10/30 08:03:57;;;;;;;34.37;24.80;;;8.10;99.90;;;;;;5047454;28;20405;-81
2021/10/30 08:06:24;;;;;;;33.80;26.37;;;;;;;;;;5044627;28;20439;-78
2021/10/30 08:08:51;;;;;;;30.60;23.83;;;;;;;;;;5050750;28;20438;-82
2021/10/30 08:11:18;;;;;;;29.83;23.30;;;;;;;;;;5052140;28;20203;-83
2021/10/30 08:13:45;;;;;;;38.70;25.00;;;;;;;;;;5046711;28;20496;-83
2021/10/30 08:16:12;;;;;;;33.67;24.60;;;;;;;;;;5043526;28;20452;-79
2021/10/30 08:18:39;;;;;;;29.60;22.47;;;;;;;;;;5042556;28;20442;-79
2021/10/30 08:21:08;;;;;;;30.43;21.87;;;8.50;99.90;;;;;;5056079;28;20434;-82
2021/10/30 08:23:35;;;;;;;31.03;22.03;;;;;;;;;;5056286;28;20469;-80
2021/10/30 08:26:02;;;;;;;33.43;22.07;;;;;;;;;;5056885;28;20462;-83
2021/10/30 08:28:29;;;;;;;29.73;21.10;;;;;;;;;;5057225;28;20457;-82
2021/10/30 08:30:56;;;;;;;30.37;23.20;;;;;;;;;;5057084;28;20426;-82
2021/10/30 08:33:22;;;;;;;29.60;20.83;;;;;;;;;;5056927;28;20460;-83
2021/10/30 08:35:49;;;;;;;23.67;19.47;;;;;;;;;;5052616;28;20493;-84
2021/10/30 08:38:17;;;;;;;27.53;20.77;;;9.30;99.90;;;;;;5043453;28;20473;-83
2021/10/30 08:40:44;;;;;;;24.10;19.03;;;;;;;;;;5051468;28;20442;-83
2021/10/30 08:43:19;;;;;;;30.27;24.17;;;9.50;99.90;;;;;;5054433;28;20454;-84
2021/10/30 08:45:50;;;;;;;30.13;22.83;;;9.60;99.90;;;;;;5046274;28;20474;-85
2021/10/30 08:48:19;;;;;;;22.83;19.87;;;9.70;99.90;;;;;;5043979;28;20441;-82
2021/10/30 08:50:46;;;;;;;27.83;20.80;;;;;;;;;;5043956;28;20425;-83
2021/10/30 08:53:13;;;;;;;29.27;19.47;;;;;;;;;;5042711;28;20532;-84
2021/10/30 08:55:46;;;;;;;25.10;19.47;;;;;;;;;;5042333;28;20528;-84
2021/10/30 08:58:20;;;;;;;26.60;20.30;;;10.00;99.90;;;;;;5041012;28;20438;-84
2021/10/30 09:00:48;;;;;;;25.23;19.57;;;;;;;;;;5040433;28;20877;-84
2021/10/30 09:03:18;;;;;;;30.10;20.27;;;10.30;99.90;;;;;;5041254;28;20446;-84
2021/10/30 09:05:48;;;;;;;24.90;19.30;;;10.40;99.90;;;;;;5042540;28;20302;-83
2021/10/30 09:08:15;;;;;;;24.13;19.60;;;;;;;;;;5045392;28;20511;-86
2021/10/30 09:10:45;;;;;;;23.80;19.07;;;10.50;99.90;;;;;;5051730;28;20484;-83
2021/10/30 09:13:12;;;;;;;26.07;18.67;;;10.60;99.90;;;;;;5058686;28;20456;-81
2021/10/30 09:15:48;;;;;;;26.50;18.53;;;10.60;99.90;;;;;;5060202;28;20425;-83
2021/10/30 09:18:26;;;;;;;20.17;17.20;;;10.70;99.90;;;;;;5055171;28;20436;-84
2021/10/30 09:20:54;;;;;;;26.63;19.23;;;;;;;;;;5051120;28;20438;-85
2021/10/30 09:23:21;;;;;;;23.93;18.90;;;10.80;99.90;;;;;;5051548;28;20478;-83
2021/10/30 09:25:55;;;;;;;23.95;19.20;;;11.20;99.90;;;;;;5049460;28;20442;-84
2021/10/30 09:28:24;;;;;;;21.60;16.93;;;10.80;99.90;;;;;;5050700;28;20184;-83
2021/10/30 09:30:59;;;;;;;26.10;18.80;;;10.80;99.90;;;;;;5047937;28;20845;-84
2021/10/30 09:33:27;;;;;;;24.93;19.33;;;;;;;;;;5045923;28;20452;-84
2021/10/30 09:35:55;;;;;;;22.73;18.03;;;10.90;99.90;;;;;;5041728;28;20463;-84
2021/10/30 09:38:36;;;;;;;28.90;19.27;;;11.00;99.90;;;;;;5040343;28;20413;-84
2021/10/30 09:41:20;;;;;;;27.07;19.33;;;11.10;99.90;;;;;;5041398;28;20964;-85
2021/10/30 09:43:53;;;;;;;23.07;19.50;;;11.10;99.90;;;;;;5042078;28;20455;-84
2021/10/30 09:46:20;;;;;;;24.00;17.90;;;;;;;;;;5044269;28;20779;-84
2021/10/30 09:48:47;;;;;;;21.17;17.37;;;;;;;;;;5042841;28;20474;-84
2021/10/30 09:51:27;;;;;;;21.90;18.77;;;11.30;99.90;;;;;;5043899;28;20875;-84
2021/10/30 09:53:54;;;;;;;25.80;18.80;;;;;;;;;;5046536;28;20571;-82
2021/10/30 09:56:39;;;;;;;30.93;19.17;;;;;;;;;;5044120;28;20466;-90
2021/10/30 09:59:09;;;;;;;19.30;17.10;;;11.50;99.90;;;;;;5044335;28;20449;-83
2021/10/30 10:01:36;;;;;;;22.77;17.53;;;11.50;99.90;;;;;;5041364;28;20505;-84
2021/10/30 10:04:06;;;;;;;24.90;18.50;;;;;;;;;;5039222;28;20474;-78
2021/10/30 10:06:34;;;;;;;22.33;17.27;;;11.50;99.90;;;;;;5040843;28;20434;-80
2021/10/30 10:09:02;;;;;;;22.67;17.43;;;;;;;;;;5039962;28;20448;-82
2021/10/30 10:11:30;;;;;;;21.70;16.77;;;11.60;99.90;;;;;;5041325;28;20956;-82
2021/10/30 10:13:57;;;;;;;22.92;19.58;;;;;;;;;;5041540;28;20798;-82
2021/10/30 10:16:26;;;;;;;24.63;18.50;;;11.70;99.90;;;;;;5050948;28;20207;-84
2021/10/30 10:18:53;;;;;;;18.80;16.63;;;11.70;99.90;;;;;;5043808;28;20417;-82
2021/10/30 10:21:23;;;;;;;23.30;17.27;;;11.70;99.90;;;;;;5040261;28;20450;-82
2021/10/30 10:23:50;;;;;;;26.17;18.35;;;11.90;99.90;;;;;;5039177;28;20978;-82
2021/10/30 10:26:17;;;;;;;20.03;17.00;;;;;;;;;;5040586;28;20215;-82
2021/10/30 10:29:01;;;;;;;19.20;16.60;;;11.90;99.90;;;;;;5039241;28;20431;-82
2021/10/30 10:31:28;;;;;;;20.90;16.30;;;;;;;;;;5040987;28;20184;-83
2021/10/30 10:34:08;;;;;;;24.70;18.33;;;12.00;99.90;;;;;;5041167;28;20457;-82
2021/10/30 10:36:35;;;;;;;21.53;16.40;;;;;;;;;;5041573;28;20422;-82
2021/10/30 10:39:13;;;;;;;23.10;16.37;;;12.10;99.90;;;;;;5043571;28;20453;-81
2021/10/30 10:41:55;;;;;;;19.90;17.47;;;12.20;99.90;;;;;;5046141;28;20454;-83
2021/10/30 10:44:56;;;;;;;19.43;16.53;;;12.20;99.90;;;;;;5044412;28;20573;-82
2021/10/30 10:47:53;;;;;;;18.53;15.77;;;12.20;99.90;;;;;;4978266;28;20893;-82
2021/10/30 10:50:24;;;;;;;20.43;17.00;;;12.20;99.90;;;;;;4979627;28;20480;-82
2021/10/30 10:53:25;;;;;;;22.57;16.50;;;12.30;99.90;;;;;;5020088;28;20469;-82
2021/10/30 10:56:19;;;;;;;18.30;16.40;;;12.30;99.90;;;;;;5039422;28;20474;-82
2021/10/30 10:59:18;;;;;;;19.90;16.70;;;12.30;99.90;;;;;;5004086;28;20541;-82
2021/10/30 11:02:15;;;;;;;17.87;15.17;;;12.30;99.90;;;;;;5041210;28;20447;-82
2021/10/30 11:05:24;;;;;;;21.40;17.27;;;12.50;99.90;;;;;;5039948;28;20861;-82
2021/10/30 11:08:21;;;;;;;20.60;16.37;;;12.50;99.90;;;;;;5044312;28;20430;-82
2021/10/30 11:10:47;;;;;;;19.03;15.20;;;;;;;;;;5047414;28;20485;-81
2021/10/30 11:13:20;;;;;;;18.40;15.40;;;12.70;99.90;;;;;;5051796;28;20450;-82
2021/10/30 11:15:50;;;;;;;19.90;16.70;;;12.70;99.90;;;;;;5052984;28;20473;-81
2021/10/30 11:18:27;;;;;;;18.83;16.60;;;12.70;99.90;;;;;;5052347;28;20435;-81
2021/10/30 11:21:14;;;;;;;18.60;15.67;;;12.80;99.90;;;;;;5052057;28;20422;-81
2021/10/30 11:23:43;;;;;;;20.67;17.87;;;12.80;99.90;;;;;;5050652;28;20477;-81
2021/10/30 11:26:10;;;;;;;24.43;17.23;;;;;;;;;;5050383;28;20470;-81
2021/10/30 11:28:38;;;;;;;26.63;18.60;;;;;;;;;;5043741;28;20473;-81
2021/10/30 11:31:11;;;;;;;29.53;19.40;;;12.90;99.90;;;;;;5040577;28;20794;-82
2021/10/30 11:33:40;;;;;;;21.80;16.60;;;13.00;99.90;;;;;;5040289;28;20970;-83
2021/10/30 11:36:08;;;;;;;25.33;17.50;;;13.00;99.90;;;;;;5055662;28;20446;-79
2021/10/30 11:38:36;;;;;;;19.40;17.10;;;13.00;99.90;;;;;;5049277;28;20442;-81
2021/10/30 11:41:05;;;;;;;20.33;16.07;;;13.10;99.90;;;;;;5043008;28;20442;-81
2021/10/30 11:43:34;;;;;;;23.60;17.27;;;13.10;99.90;;;;;;5044227;28;20449;-82
2021/10/30 11:46:01;;;;;;;20.87;17.93;;;;;;;;;;5044760;28;20454;-82
2021/10/30 11:48:41;;;;;;;21.03;15.93;;;13.20;99.90;;;;;;5042504;28;20446;-82
2021/10/30 11:51:09;;;;;;;19.67;15.63;;;13.20;99.90;;;;;;5042588;28;20448;-82
2021/10/30 11:53:38;;;;;;;20.30;17.70;;;13.20;99.90;;;;;;5042566;28;20911;-81
2021/10/30 11:56:09;;;;;;;21.87;15.40;;;13.30;99.90;;;;;;5042462;28;20558;-81
2021/10/30 11:58:41;;;;;;;23.03;16.53;;;13.30;99.90;;;;;;5041873;28;20447;-82
2021/10/30 12:01:23;;;;;;;19.13;16.97;;;13.40;99.90;;;;;;5044230;28;20559;-81
2021/10/30 12:04:07;;;;;;;19.57;16.90;;;13.40;99.90;;;;;;5047521;28;20435;-83
2021/10/30 12:06:35;;;;;;;19.40;16.90;;;13.50;99.90;;;;;;5045930;28;20894;-82
2021/10/30 12:09:03;;;;;;;21.57;17.10;;;;;;;;;;5047731;28;20433;-82
2021/10/30 12:11:30;;;;;;;22.80;17.33;;;;;;;;;;5045303;28;20449;-82
2021/10/30 12:13:59;;;;;;;21.10;15.97;;;13.70;99.90;;;;;;5043822;28;20513;-83
2021/10/30 12:16:26;;;;;;;17.30;15.30;;;13.70;99.90;;;;;;5045109;28;20545;-82
2021/10/30 12:19:01;;;;;;;20.67;15.53;;;13.70;99.90;;;;;;5045153;28;20504;-82
2021/10/30 12:21:32;;;;;;;20.47;16.60;;;13.70;99.90;;;;;;5046313;28;20428;-81
2021/10/30 12:24:00;;;;;;;21.53;15.90;;;13.70;99.90;;;;;;5043604;28;20492;-81
2021/10/30 12:26:28;;;;;;;20.80;16.00;;;13.80;99.90;;;;;;5041252;28;20428;-83
2021/10/30 12:28:56;;;;;;;16.00;14.27;;;;;;;;;;5042973;28;20941;-82
2021/10/30 12:31:30;;;;;;;17.17;13.97;;;13.80;99.90;;;;;;5044299;28;20758;-81
2021/10/30 12:33:59;;;;;;;20.10;15.70;;;13.90;99.90;;;;;;5042782;28;20485;-82
2021/10/30 12:36:28;;;;;;;23.03;15.40;;;13.80;99.90;;;;;;5041237;28;20458;-82
2021/10/30 12:38:55;;;;;;;22.83;17.60;;;13.90;99.90;;;;;;5040043;28;20475;-82
2021/10/30 12:41:23;;;;;;;20.27;16.30;;;;;;;;;;5051512;28;20409;-82
2021/10/30 12:43:50;;;;;;;22.87;15.80;;;;;;;;;;5056051;28;20442;-81
2021/10/30 12:46:17;;;;;;;18.63;15.87;;;;;;;;;;5053465;28;20519;-82
2021/10/30 12:48:45;;;;;;;20.00;16.50;;;14.00;99.90;;;;;;5049693;28;20872;-81
2021/10/30 12:51:16;;;;;;;18.47;16.57;;;14.00;99.90;;;;;;5054349;28;20442;-82
2021/10/30 12:53:45;;;;;;;24.33;16.63;;;;;;;;;;5050962;28;20453;-82
2021/10/30 12:56:13;;;;;;;16.40;14.70;;;14.00;99.90;;;;;;5051589;28;20453;-82
2021/10/30 12:58:43;;;;;;;19.87;16.43;;;14.00;99.90;;;;;;5051381;28;20425;-81
2021/10/30 13:01:19;;;;;;;17.00;14.70;;;14.00;99.90;;;;;;5049638;28;20514;-81
2021/10/30 13:04:00;;;;;;;23.80;16.55;;;14.00;99.90;;;;;;5052627;28;20427;-82
2021/10/30 13:06:30;;;;;;;17.93;15.17;;;14.00;99.90;;;;;;5049789;28;20426;-82
2021/10/30 13:09:02;;;;;;;18.80;15.27;;;14.00;99.90;;;;;;5049186;28;20413;-82
2021/10/30 13:11:29;;;;;;;21.42;16.92;;;;;;;;;;5047282;28;20441;-83
2021/10/30 13:13:56;;;;;;;20.30;16.20;;;;;;;;;;5054078;28;20232;-81
2021/10/30 13:16:23;;;;;;;18.97;15.60;;;;;;;;;;5055590;28;20515;-80
2021/10/30 13:18:50;;;;;;;22.43;15.53;;;;;;;;;;5049767;28;20444;-81
2021/10/30 13:21:17;;;;;;;18.53;14.70;;;14.10;99.90;;;;;;5043644;28;20446;-82
2021/10/30 13:23:46;;;;;;;17.67;15.40;;;;;;;;;;5044185;28;20481;-81
2021/10/30 13:26:13;;;;;;;18.53;14.80;;;;;;;;;;5043651;28;20433;-81
2021/10/30 13:28:40;;;;;;;16.60;13.80;;;;;;;;;;5051303;28;20448;-81
2021/10/30 13:31:07;;;;;;;21.27;14.30;;;;;;;;;;5056159;28;20443;-80
2021/10/30 13:33:35;;;;;;;17.60;15.03;;;;;;;;;;5055257;28;20451;-82
2021/10/30 13:36:02;;;;;;;22.13;16.20;;;;;;;;;;5046461;28;21062;-83
2021/10/30 13:38:29;;;;;;;18.70;15.47;;;;;;;;;;5046795;28;20442;-81
2021/10/30 13:40:58;;;;;;;17.53;14.00;;;;;;;;;;5048026;28;20430;-81
2021/10/30 13:43:25;;;;;;;16.23;14.50;;;;;;;;;;5045812;28;20450;-81
2021/10/30 13:45:53;;;;;;;18.87;16.33;;;;;;;;;;5045631;28;20466;-81
2021/10/30 13:48:20;;;;;;;18.80;15.70;;;;;;;;;;5041051;28;20831;-82
2021/10/30 13:50:47;;;;;;;23.00;16.63;;;;;;;;;;5040447;28;20443;-81
2021/10/30 13:53:14;;;;;;;18.43;14.43;;;;;;;;;;5043629;28;20447;-82
2021/10/30 13:55:41;;;;;;;18.00;14.77;;;;;;;;;;5043272;28;20474;-82
2021/10/30 13:58:09;;;;;;;17.27;14.70;;;14.10;99.90;;;;;;5044159;28;20447;-82
2021/10/30 14:00:36;;;;;;;17.07;14.00;;;;;;;;;;5044324;28;20455;-81
2021/10/30 14:03:03;;;;;;;21.63;13.90;;;;;;;;;;5045726;28;20446;-81
2021/10/30 14:05:30;;;;;;;16.53;14.83;;;;;;;;;;5042998;28;20466;-82
2021/10/30 14:07:57;;;;;;;16.93;15.00;;;;;;;;;;5046404;28;20450;-81
2021/10/30 14:10:24;;;;;;;15.27;13.40;;;;;;;;;;5044377;28;20450;-83
2021/10/30 14:12:51;;;;;;;18.23;14.50;;;;;;;;;;5044456;28;20542;-81
2021/10/30 14:15:20;;;;;;;16.02;13.70;;;14.00;99.90;;;;;;5051364;28;20568;-81
2021/10/30 14:17:47;;;;;;;17.75;13.90;;;;;;;;;;5051875;28;20440;-81
2021/10/30 14:20:14;;;;;;;15.10;13.60;;;;;;;;;;5051203;28;20674;-82
2021/10/30 14:22:41;;;;;;;15.23;12.23;;;;;;;;;;5054281;28;20439;-81
2021/10/30 14:25:08;;;;;;;16.90;14.00;;;14.00;99.90;;;;;;5054396;28;20507;-80
2021/10/30 14:27:35;;;;;;;16.80;14.03;;;;;;;;;;5055667;28;20446;-80
2021/10/30 14:30:02;;;;;;;20.30;13.53;;;;;;;;;;5055726;28;20405;-80
2021/10/30 14:32:32;;;;;;;17.33;14.10;;;14.00;99.90;;;;;;5047966;28;20446;-82
2021/10/30 14:34:59;;;;;;;19.30;14.00;;;;;;;;;;5042779;28;20502;-82
2021/10/30 14:37:26;;;;;;;19.63;14.60;;;;;;;;;;5043836;28;20442;-82
2021/10/30 14:39:53;;;;;;;16.93;14.33;;;;;;;;;;5054818;28;20446;-82
2021/10/30 14:42:20;;;;;;;15.27;12.00;;;;;;;;;;5052017;28;20430;-82
2021/10/30 14:44:47;;;;;;;15.50;13.30;;;;;;;;;;5049878;28;20454;-81
2021/10/30 14:47:14;;;;;;;17.70;13.43;;;;;;;;;;5045093;28;20450;-83